createdAt,value
2023-02-16T00:00:00.743Z,98.60
2023-02-16T00:05:31.076Z,64.03
2023-02-16T00:10:38.330Z,83.07
2023-02-16T00:15:41.747Z,87.87
2023-02-16T00:20:45.668Z,81.07
2023-02-16T00:25:48.674Z,78.40
2023-02-16T00:30:51.985Z,99.13
2023-02-16T00:35:55.025Z,93.57
2023-02-16T00:40:57.813Z,98.03
2023-02-16T00:46:00.754Z,80.30
2023-02-16T00:51:13.743Z,79.93
2023-02-16T00:56:24.040Z,115.30
2023-02-16T01:01:32.133Z,81.73
2023-02-16T01:06:53.414Z,88.90
2023-02-16T01:11:57.116Z,81.07
2023-02-16T01:17:00.309Z,94.10
2023-02-16T01:22:03.225Z,92.97
2023-02-16T01:27:06.149Z,90.30
2023-02-16T01:32:12.982Z,102.03
2023-02-16T01:37:16.936Z,105.50
2023-02-16T01:42:51.967Z,106.00
2023-02-16T01:48:03.216Z,76.47
2023-02-16T01:53:39.356Z,101.13
2023-02-16T01:58:54.793Z,101.83
2023-02-16T02:04:17.252Z,76.50
2023-02-16T02:09:44.862Z,93.20
2023-02-16T02:14:49.211Z,78.47
2023-02-16T02:20:13.519Z,85.83
2023-02-16T02:25:52.279Z,85.97
2023-02-16T02:31:14.679Z,91.10
2023-02-16T02:36:31.449Z,72.80
2023-02-16T02:42:16.401Z,86.40
2023-02-16T02:47:19.454Z,87.53
2023-02-16T02:53:06.636Z,73.37
2023-02-16T02:58:29.861Z,77.13
2023-02-16T03:03:46.636Z,104.43
2023-02-16T03:09:02.267Z,93.30
2023-02-16T03:22:04.394Z,67.63
2023-02-16T03:27:27.303Z,77.57
2023-02-16T03:40:48.072Z,67.40
2023-02-16T03:45:48.858Z,97.20
2023-02-16T03:50:51.889Z,74.07
2023-02-16T03:55:54.867Z,72.10
2023-02-16T04:02:19.681Z,78.17
2023-02-16T04:07:46.249Z,74.97
2023-02-16T04:12:49.671Z,82.80
2023-02-16T04:17:54.137Z,70.33
2023-02-16T04:23:05.499Z,86.13
2023-02-16T04:28:41.140Z,97.07
2023-02-16T04:34:46.099Z,83.23
2023-02-16T04:40:56.631Z,80.60
2023-02-16T04:46:00.179Z,79.57
2023-02-16T04:51:05.643Z,108.57
2023-02-16T04:56:13.309Z,81.70
2023-02-16T05:01:23.014Z,96.80
2023-02-16T05:06:26.037Z,75.73
2023-02-16T05:11:47.734Z,88.60
2023-02-16T05:16:51.127Z,94.40
2023-02-16T05:21:54.089Z,69.47
2023-02-16T05:26:57.107Z,80.30
2023-02-16T05:32:04.298Z,93.33
2023-02-16T05:37:07.933Z,92.20
2023-02-16T05:42:12.323Z,79.60
2023-02-16T05:47:15.363Z,90.40
2023-02-16T05:52:18.335Z,51.53
2023-02-16T05:57:21.426Z,91.07
2023-02-16T06:02:24.412Z,102.93
2023-02-16T06:07:27.701Z,90.80
2023-02-16T06:12:32.411Z,103.87
2023-02-16T06:17:35.335Z,97.27
2023-02-16T06:22:38.403Z,85.50
2023-02-16T06:27:41.427Z,101.43
2023-02-16T06:32:44.384Z,84.23
2023-02-16T06:37:47.396Z,99.17
2023-02-16T06:42:50.354Z,93.87
2023-02-16T06:47:53.369Z,89.77
2023-02-16T06:52:56.270Z,91.47
2023-02-16T06:57:59.227Z,92.03
2023-02-16T07:03:02.758Z,106.30
2023-02-16T07:08:05.659Z,136.77
2023-02-16T07:13:08.599Z,144.07
2023-02-16T07:18:11.465Z,108.50
2023-02-16T07:23:14.365Z,68.93
2023-02-16T07:28:17.664Z,82.97
2023-02-16T07:33:21.297Z,113.10
2023-02-16T07:38:24.053Z,91.47
2023-02-16T07:43:27.166Z,106.97
2023-02-16T07:48:30.259Z,116.17
2023-02-16T07:53:33.382Z,104.20
2023-02-16T07:58:36.906Z,138.87
2023-02-16T08:03:41.265Z,127.37
2023-02-16T08:08:44.829Z,133.70
2023-02-16T08:13:48.353Z,149.73
2023-02-16T08:18:52.800Z,179.53
2023-02-16T08:24:05.899Z,120.67
2023-02-16T08:29:10.302Z,98.00
2023-02-16T08:34:16.572Z,79.97
2023-02-16T08:39:21.552Z,94.73
2023-02-16T08:44:25.832Z,91.90
2023-02-16T08:49:28.892Z,95.67
2023-02-16T08:54:33.484Z,88.43
2023-02-16T08:59:36.417Z,86.70
2023-02-16T09:04:39.864Z,92.03
2023-02-16T09:09:44.560Z,92.33
2023-02-16T09:14:47.752Z,109.47
2023-02-16T09:19:50.856Z,92.20
2023-02-16T09:24:53.806Z,88.17
2023-02-16T09:29:58.605Z,74.77
2023-02-16T09:35:01.693Z,75.10
2023-02-16T09:40:05.303Z,107.50
2023-02-16T09:45:15.813Z,67.10
2023-02-16T09:50:50.288Z,75.20
2023-02-16T09:56:10.205Z,75.63
2023-02-16T10:01:43.238Z,70.77
2023-02-16T10:06:58.412Z,64.80
2023-02-16T10:12:09.408Z,64.53
2023-02-16T10:17:37.692Z,63.60
2023-02-16T10:23:25.194Z,62.13
2023-02-16T10:28:55.514Z,58.37
2023-02-16T10:34:24.701Z,50.90
2023-02-16T10:39:52.114Z,52.25
2023-02-16T10:45:20.774Z,51.95
2023-02-16T10:50:41.006Z,55.55
2023-02-16T10:55:44.033Z,58.37
2023-02-16T11:01:15.690Z,49.35
2023-02-16T11:06:26.222Z,50.42
2023-02-16T11:11:37.291Z,53.30
2023-02-16T11:16:40.571Z,51.50
2023-02-16T11:21:56.634Z,52.47
2023-02-16T11:27:23.268Z,49.17
2023-02-16T11:32:26.445Z,49.28
2023-02-16T11:37:33.587Z,49.13
2023-02-16T11:42:44.652Z,59.25
2023-02-16T11:47:55.953Z,56.80
2023-02-16T11:53:24.917Z,55.05
2023-02-16T11:58:29.310Z,59.38
2023-02-16T12:03:49.141Z,61.50
2023-02-16T12:09:15.743Z,58.75
2023-02-16T12:14:51.360Z,62.03
2023-02-16T12:20:23.332Z,65.37
2023-02-16T12:25:42.244Z,60.47
2023-02-16T12:31:22.720Z,62.47
2023-02-16T12:36:56.490Z,54.97
2023-02-16T12:42:32.552Z,55.53
2023-02-16T12:47:44.024Z,52.90
2023-02-16T12:52:59.073Z,58.57
2023-02-16T12:58:08.292Z,54.53
2023-02-16T13:03:22.589Z,60.63
2023-02-16T13:08:39.329Z,62.20
2023-02-16T13:13:46.921Z,71.23
2023-02-16T13:18:52.855Z,57.07
2023-02-16T13:24:35.018Z,49.30
2023-02-16T13:29:52.749Z,47.72
2023-02-16T13:35:35.815Z,46.07
2023-02-16T13:41:11.777Z,34.40
2023-02-16T13:46:28.692Z,32.63
2023-02-16T13:51:46.312Z,36.30
2023-02-16T13:56:49.353Z,30.53
2023-02-16T14:01:57.022Z,28.10
2023-02-16T14:07:09.770Z,36.07
2023-02-16T14:12:19.579Z,34.07
2023-02-16T14:17:22.663Z,44.10
2023-02-16T14:23:00.148Z,35.03
2023-02-16T14:28:26.121Z,35.43
2023-02-16T14:33:46.406Z,36.43
2023-02-16T14:38:52.185Z,34.43
2023-02-16T14:44:07.505Z,35.87
2023-02-16T14:49:55.215Z,35.90
2023-02-16T14:55:51.555Z,38.07
2023-02-16T15:01:16.540Z,39.60
2023-02-16T15:06:25.453Z,37.87
2023-02-16T15:12:00.561Z,41.67
2023-02-16T15:17:08.218Z,41.43
2023-02-16T15:22:23.144Z,44.30
2023-02-16T15:27:26.581Z,45.97
2023-02-16T15:32:29.588Z,43.27
2023-02-16T15:37:33.063Z,66.97
2023-02-16T15:42:38.295Z,46.37
2023-02-16T15:47:41.158Z,51.73
2023-02-16T15:52:44.204Z,54.77
2023-02-16T15:57:47.229Z,62.47
2023-02-16T16:02:54.839Z,60.93
2023-02-16T16:07:58.757Z,65.00
2023-02-16T16:13:06.952Z,51.23
2023-02-16T16:18:50.366Z,59.03
2023-02-16T16:24:00.378Z,58.63
2023-02-16T16:29:04.535Z,58.70
2023-02-16T16:34:12.488Z,56.87
2023-02-16T16:39:18.460Z,53.00
2023-02-16T16:44:38.952Z,75.47
2023-02-16T16:50:02.943Z,73.53
2023-02-16T16:55:35.017Z,93.30
2023-02-16T17:00:42.269Z,86.95
2023-02-16T17:05:46.129Z,94.00
2023-02-16T17:10:49.270Z,78.80
2023-02-16T17:16:12.325Z,63.63
2023-02-16T17:21:16.343Z,64.90
2023-02-16T17:26:19.218Z,59.30
2023-02-16T17:31:22.220Z,94.37
2023-02-16T17:36:27.746Z,86.20
2023-02-16T17:41:30.842Z,68.07
2023-02-16T17:46:33.951Z,116.33
2023-02-16T17:51:37.238Z,76.97
2023-02-16T17:56:40.346Z,62.93
2023-02-16T18:01:45.196Z,69.03
2023-02-16T18:06:48.260Z,70.67
2023-02-16T18:11:51.473Z,60.17
2023-02-16T18:16:54.606Z,58.20
2023-02-16T18:21:57.796Z,58.30
2023-02-16T18:27:00.536Z,67.87
2023-02-16T18:32:04.705Z,54.47
2023-02-16T18:37:07.630Z,69.33
2023-02-16T18:42:11.570Z,68.53
2023-02-16T18:47:15.225Z,65.70
2023-02-16T18:52:19.115Z,63.30
2023-02-16T18:57:22.748Z,67.00
2023-02-16T19:02:25.837Z,64.87
2023-02-16T19:07:29.051Z,75.47
2023-02-16T19:12:32.120Z,56.77
2023-02-16T19:17:35.898Z,74.33
2023-02-16T19:22:38.982Z,53.70
2023-02-16T19:27:42.949Z,53.47
2023-02-16T19:32:45.902Z,70.97
2023-02-16T19:37:49.530Z,52.43
2023-02-16T19:42:52.536Z,54.90
2023-02-16T19:47:55.443Z,53.70
2023-02-16T19:52:58.325Z,49.33
2023-02-16T19:58:01.711Z,48.13
2023-02-16T20:03:04.825Z,47.00
2023-02-16T20:08:08.125Z,123.00
2023-02-16T20:13:11.415Z,174.90
2023-02-16T20:18:14.407Z,126.33
2023-02-16T20:23:17.562Z,91.30
2023-02-16T20:28:21.005Z,97.13
2023-02-16T20:33:23.975Z,63.90
2023-02-16T20:38:26.899Z,56.00
2023-02-16T20:43:30.476Z,52.17
2023-02-16T20:48:34.679Z,66.27
2023-02-16T20:53:37.879Z,62.00
2023-02-16T20:58:42.330Z,89.83
2023-02-16T21:03:45.789Z,123.33
2023-02-16T21:08:48.708Z,99.87
2023-02-16T21:13:52.089Z,99.20
2023-02-16T21:18:56.447Z,193.63
2023-02-16T21:23:59.472Z,82.13
2023-02-16T21:29:02.584Z,63.53
2023-02-16T21:34:05.583Z,58.10
2023-02-16T21:39:08.450Z,59.33
2023-02-16T21:44:15.648Z,68.53
2023-02-16T21:49:20.577Z,63.03
2023-02-16T21:54:43.685Z,46.27
2023-02-16T21:59:46.581Z,62.30
2023-02-16T22:04:49.563Z,60.23
2023-02-16T22:09:52.452Z,65.47
2023-02-16T22:14:55.546Z,70.93
2023-02-16T22:19:58.397Z,58.40
2023-02-16T22:25:01.198Z,52.37
2023-02-16T22:30:06.140Z,49.03
2023-02-16T22:35:09.169Z,54.90
2023-02-16T22:40:12.279Z,63.80
2023-02-16T22:45:15.281Z,61.37
2023-02-16T22:50:18.446Z,104.00
2023-02-16T22:55:21.426Z,64.17
2023-02-16T23:00:24.367Z,54.63
2023-02-16T23:05:29.504Z,53.57
2023-02-16T23:10:35.525Z,60.97
2023-02-16T23:15:38.516Z,61.40
2023-02-16T23:20:41.932Z,58.73
2023-02-16T23:25:47.935Z,70.30
2023-02-16T23:30:50.679Z,54.20
2023-02-16T23:35:54.948Z,71.13
2023-02-16T23:41:05.517Z,56.30
2023-02-16T23:46:09.980Z,66.60
2023-02-16T23:51:13.140Z,83.07
2023-02-16T23:56:25.853Z,75.57
